sensor_id;sensor_type;location;lat;lon;timestamp;pressure;altitude;pressure_sealevel;temperature;humidity
13581;BME280;6861;46.170;7.222;2024-03-08T00:00:19;95662.69;;;6.98;46.91
13581;BME280;6861;46.170;7.222;2024-03-08T00:02:48;95656.44;;;6.99;46.08
13581;BME280;6861;46.170;7.222;2024-03-08T00:05:18;95655.44;;;7.05;46.12
13581;BME280;6861;46.170;7.222;2024-03-08T00:07:46;95662.22;;;7.06;45.91
13581;BME280;6861;46.170;7.222;2024-03-08T00:10:15;95670.28;;;7.05;46.55
13581;BME280;6861;46.170;7.222;2024-03-08T00:12:45;95665.56;;;7.02;47.05
13581;BME280;6861;46.170;7.222;2024-03-08T00:15:15;95670.47;;;6.93;46.94
13581;BME280;6861;46.170;7.222;2024-03-08T00:17:46;95671.91;;;6.79;47.10
13581;BME280;6861;46.170;7.222;2024-03-08T00:20:15;95674.97;;;6.71;46.94
13581;BME280;6861;46.170;7.222;2024-03-08T00:22:46;95674.91;;;6.66;47.10
13581;BME280;6861;46.170;7.222;2024-03-08T00:25:14;95672.28;;;6.61;46.68
13581;BME280;6861;46.170;7.222;2024-03-08T00:27:45;95674.56;;;6.57;47.38
13581;BME280;6861;46.170;7.222;2024-03-08T00:30:16;95674.28;;;6.53;46.66
13581;BME280;6861;46.170;7.222;2024-03-08T00:32:45;95665.44;;;6.54;46.43
13581;BME280;6861;46.170;7.222;2024-03-08T00:35:13;95657.41;;;6.56;46.92
13581;BME280;6861;46.170;7.222;2024-03-08T00:37:41;95663.69;;;6.60;46.67
13581;BME280;6861;46.170;7.222;2024-03-08T00:40:11;95657.69;;;6.60;46.63
13581;BME280;6861;46.170;7.222;2024-03-08T00:42:39;95656.63;;;6.55;46.81
13581;BME280;6861;46.170;7.222;2024-03-08T00:45:10;95657.91;;;6.53;47.12
13581;BME280;6861;46.170;7.222;2024-03-08T00:47:39;95655.56;;;6.51;46.78
13581;BME280;6861;46.170;7.222;2024-03-08T00:50:10;95647.22;;;6.49;46.80
13581;BME280;6861;46.170;7.222;2024-03-08T00:52:38;95649.75;;;6.44;47.75
13581;BME280;6861;46.170;7.222;2024-03-08T00:55:08;95643.25;;;6.42;48.11
13581;BME280;6861;46.170;7.222;2024-03-08T00:57:37;95640.88;;;6.40;47.32
13581;BME280;6861;46.170;7.222;2024-03-08T01:00:09;95642.94;;;6.38;47.04
13581;BME280;6861;46.170;7.222;2024-03-08T01:02:39;95636.66;;;6.34;47.58
13581;BME280;6861;46.170;7.222;2024-03-08T01:05:08;95625.75;;;6.32;47.82
13581;BME280;6861;46.170;7.222;2024-03-08T01:07:36;95630.94;;;6.32;47.43
13581;BME280;6861;46.170;7.222;2024-03-08T01:10:06;95625.19;;;6.30;47.25
13581;BME280;6861;46.170;7.222;2024-03-08T01:12:37;95635.06;;;6.28;47.96
13581;BME280;6861;46.170;7.222;2024-03-08T01:15:06;95629.84;;;6.28;47.51
13581;BME280;6861;46.170;7.222;2024-03-08T01:17:37;95626.22;;;6.29;48.17
13581;BME280;6861;46.170;7.222;2024-03-08T01:20:07;95630.16;;;6.32;47.96
13581;BME280;6861;46.170;7.222;2024-03-08T01:22:38;95637.69;;;6.33;47.14
13581;BME280;6861;46.170;7.222;2024-03-08T01:25:07;95629.66;;;6.35;47.00
13581;BME280;6861;46.170;7.222;2024-03-08T01:27:35;95632.50;;;6.33;47.13
13581;BME280;6861;46.170;7.222;2024-03-08T01:30:05;95629.38;;;6.31;47.98
13581;BME280;6861;46.170;7.222;2024-03-08T01:32:38;95625.94;;;6.25;47.41
13581;BME280;6861;46.170;7.222;2024-03-08T01:35:07;95628.25;;;6.22;47.75
13581;BME280;6861;46.170;7.222;2024-03-08T01:37:37;95628.72;;;6.19;47.43
13581;BME280;6861;46.170;7.222;2024-03-08T01:40:07;95628.97;;;6.17;47.66
13581;BME280;6861;46.170;7.222;2024-03-08T01:42:36;95627.09;;;6.13;48.08
13581;BME280;6861;46.170;7.222;2024-03-08T01:45:06;95624.47;;;6.08;48.05
13581;BME280;6861;46.170;7.222;2024-03-08T01:47:35;95613.00;;;6.04;47.94
13581;BME280;6861;46.170;7.222;2024-03-08T01:50:07;95612.47;;;6.02;47.96
13581;BME280;6861;46.170;7.222;2024-03-08T01:52:36;95610.38;;;5.99;47.89
13581;BME280;6861;46.170;7.222;2024-03-08T01:55:06;95609.03;;;5.96;47.68
13581;BME280;6861;46.170;7.222;2024-03-08T01:57:35;95600.22;;;5.97;47.57
13581;BME280;6861;46.170;7.222;2024-03-08T02:00:06;95596.53;;;5.93;47.73
13581;BME280;6861;46.170;7.222;2024-03-08T02:02:37;95587.44;;;5.90;47.75
13581;BME280;6861;46.170;7.222;2024-03-08T02:05:10;95585.84;;;5.89;47.78
13581;BME280;6861;46.170;7.222;2024-03-08T02:07:40;95588.22;;;5.91;48.25
13581;BME280;6861;46.170;7.222;2024-03-08T02:10:10;95577.50;;;5.87;47.88
13581;BME280;6861;46.170;7.222;2024-03-08T02:12:39;95574.91;;;5.87;48.04
13581;BME280;6861;46.170;7.222;2024-03-08T02:15:08;95580.09;;;5.87;48.46
13581;BME280;6861;46.170;7.222;2024-03-08T02:17:37;95575.94;;;5.86;48.39
13581;BME280;6861;46.170;7.222;2024-03-08T02:20:06;95573.81;;;5.83;47.84
13581;BME280;6861;46.170;7.222;2024-03-08T02:22:38;95561.34;;;5.80;47.98
13581;BME280;6861;46.170;7.222;2024-03-08T02:25:08;95571.16;;;5.78;48.45
13581;BME280;6861;46.170;7.222;2024-03-08T02:27:37;95570.63;;;5.76;47.89
13581;BME280;6861;46.170;7.222;2024-03-08T02:30:06;95569.84;;;5.76;48.71
13581;BME280;6861;46.170;7.222;2024-03-08T02:32:35;95562.31;;;5.74;47.95
13581;BME280;6861;46.170;7.222;2024-03-08T02:35:04;95562.84;;;5.76;48.20
13581;BME280;6861;46.170;7.222;2024-03-08T02:37:33;95567.00;;;5.77;48.60
13581;BME280;6861;46.170;7.222;2024-03-08T02:40:03;95570.94;;;5.80;47.90
13581;BME280;6861;46.170;7.222;2024-03-08T02:42:32;95567.59;;;5.84;48.25
13581;BME280;6861;46.170;7.222;2024-03-08T02:45:00;95574.13;;;5.87;48.03
13581;BME280;6861;46.170;7.222;2024-03-08T02:47:29;95565.09;;;5.89;47.82
13581;BME280;6861;46.170;7.222;2024-03-08T02:49:58;95565.53;;;5.86;47.94
13581;BME280;6861;46.170;7.222;2024-03-08T02:52:28;95560.06;;;5.83;47.82
13581;BME280;6861;46.170;7.222;2024-03-08T02:54:57;95565.97;;;5.78;47.93
13581;BME280;6861;46.170;7.222;2024-03-08T02:57:27;95563.81;;;5.70;47.94
13581;BME280;6861;46.170;7.222;2024-03-08T02:59:55;95565.75;;;5.58;48.14
13581;BME280;6861;46.170;7.222;2024-03-08T03:02:26;95568.22;;;5.48;48.40
13581;BME280;6861;46.170;7.222;2024-03-08T03:04:54;95560.38;;;5.43;48.19
13581;BME280;6861;46.170;7.222;2024-03-08T03:07:23;95565.03;;;5.41;48.42
13581;BME280;6861;46.170;7.222;2024-03-08T03:09:54;95564.19;;;5.35;48.87
13581;BME280;6861;46.170;7.222;2024-03-08T03:12:22;95560.25;;;5.33;48.73
13581;BME280;6861;46.170;7.222;2024-03-08T03:14:52;95555.56;;;5.30;48.59
13581;BME280;6861;46.170;7.222;2024-03-08T03:17:20;95557.59;;;5.27;48.64
13581;BME280;6861;46.170;7.222;2024-03-08T03:19:49;95560.44;;;5.26;48.87
13581;BME280;6861;46.170;7.222;2024-03-08T03:22:18;95550.84;;;5.26;48.73
13581;BME280;6861;46.170;7.222;2024-03-08T03:24:47;95549.03;;;5.27;48.98
13581;BME280;6861;46.170;7.222;2024-03-08T03:27:16;95557.59;;;5.27;48.89
13581;BME280;6861;46.170;7.222;2024-03-08T03:29:44;95564.38;;;5.28;49.03
13581;BME280;6861;46.170;7.222;2024-03-08T03:32:15;95555.56;;;5.30;49.06
13581;BME280;6861;46.170;7.222;2024-03-08T03:34:45;95550.38;;;5.30;48.94
13581;BME280;6861;46.170;7.222;2024-03-08T03:37:13;95549.88;;;5.33;49.06
13581;BME280;6861;46.170;7.222;2024-03-08T03:39:41;95546.75;;;5.31;48.95
13581;BME280;6861;46.170;7.222;2024-03-08T03:42:16;95546.75;;;5.31;49.17
13581;BME280;6861;46.170;7.222;2024-03-08T03:44:44;95543.38;;;5.30;49.26
13581;BME280;6861;46.170;7.222;2024-03-08T03:47:16;95537.16;;;5.31;49.20
13581;BME280;6861;46.170;7.222;2024-03-08T03:49:44;95535.88;;;5.34;48.89
13581;BME280;6861;46.170;7.222;2024-03-08T03:52:12;95528.06;;;5.28;49.03
13581;BME280;6861;46.170;7.222;2024-03-08T03:54:42;95530.03;;;5.21;49.08
13581;BME280;6861;46.170;7.222;2024-03-08T03:57:10;95532.34;;;5.18;49.40
13581;BME280;6861;46.170;7.222;2024-03-08T03:59:40;95530.72;;;5.12;49.71
13581;BME280;6861;46.170;7.222;2024-03-08T04:02:08;95535.06;;;5.06;49.68
13581;BME280;6861;46.170;7.222;2024-03-08T04:04:38;95529.03;;;5.01;49.68
13581;BME280;6861;46.170;7.222;2024-03-08T04:07:07;95536.97;;;4.94;49.80
13581;BME280;6861;46.170;7.222;2024-03-08T04:09:36;95523.47;;;4.92;49.84
13581;BME280;6861;46.170;7.222;2024-03-08T04:12:05;95523.47;;;4.92;49.82
13581;BME280;6861;46.170;7.222;2024-03-08T04:14:34;95530.22;;;4.93;49.84
13581;BME280;6861;46.170;7.222;2024-03-08T04:17:02;95523.47;;;4.92;49.86
13581;BME280;6861;46.170;7.222;2024-03-08T04:19:30;95523.47;;;4.92;49.80
13581;BME280;6861;46.170;7.222;2024-03-08T04:22:00;95522.63;;;4.86;50.33
13581;BME280;6861;46.170;7.222;2024-03-08T04:24:29;95524.03;;;4.77;50.09
13581;BME280;6861;46.170;7.222;2024-03-08T04:26:58;95521.84;;;4.69;50.36
13581;BME280;6861;46.170;7.222;2024-03-08T04:29:26;95514.88;;;4.70;50.31
13581;BME280;6861;46.170;7.222;2024-03-08T04:31:54;95521.16;;;4.74;50.18
13581;BME280;6861;46.170;7.222;2024-03-08T04:34:22;95524.75;;;4.73;50.45
13581;BME280;6861;46.170;7.222;2024-03-08T04:36:51;95527.81;;;4.70;50.26
13581;BME280;6861;46.170;7.222;2024-03-08T04:39:21;95515.34;;;4.67;50.31
13581;BME280;6861;46.170;7.222;2024-03-08T04:41:49;95511.19;;;4.66;50.30
13581;BME280;6861;46.170;7.222;2024-03-08T04:44:18;95512.50;;;4.68;50.26
13581;BME280;6861;46.170;7.222;2024-03-08T04:46:46;95518.47;;;4.69;50.36
13581;BME280;6861;46.170;7.222;2024-03-08T04:49:15;95514.09;;;4.69;50.37
13581;BME280;6861;46.170;7.222;2024-03-08T04:51:43;95513.78;;;4.66;50.22
13581;BME280;6861;46.170;7.222;2024-03-08T04:54:12;95511.19;;;4.66;50.20
13581;BME280;6861;46.170;7.222;2024-03-08T04:56:42;95515.34;;;4.67;50.28
13581;BME280;6861;46.170;7.222;2024-03-08T04:59:11;95518.97;;;4.66;50.56
13581;BME280;6861;46.170;7.222;2024-03-08T05:01:40;95513.00;;;4.65;50.42
13581;BME280;6861;46.170;7.222;2024-03-08T05:04:08;95520.44;;;4.61;50.27
13581;BME280;6861;46.170;7.222;2024-03-08T05:06:37;95522.72;;;4.58;50.48
13581;BME280;6861;46.170;7.222;2024-03-08T05:09:05;95519.28;;;4.52;50.71
13581;BME280;6861;46.170;7.222;2024-03-08T05:11:42;95512.69;;;4.45;50.75
13581;BME280;6861;46.170;7.222;2024-03-08T05:14:12;95520.38;;;4.40;50.95
13581;BME280;6861;46.170;7.222;2024-03-08T05:16:43;95516.94;;;4.34;51.22
13581;BME280;6861;46.170;7.222;2024-03-08T05:19:16;95514.84;;;4.31;50.93
13581;BME280;6861;46.170;7.222;2024-03-08T05:21:45;95518.47;;;4.30;50.84
13581;BME280;6861;46.170;7.222;2024-03-08T05:24:13;95513.75;;;4.27;50.88
13581;BME280;6861;46.170;7.222;2024-03-08T05:26:46;95510.69;;;4.30;50.81
13581;BME280;6861;46.170;7.222;2024-03-08T05:29:15;95515.88;;;4.30;50.47
13581;BME280;6861;46.170;7.222;2024-03-08T05:31:47;95507.56;;;4.28;50.50
13581;BME280;6861;46.170;7.222;2024-03-08T05:34:16;95516.88;;;4.29;50.42
13581;BME280;6861;46.170;7.222;2024-03-08T05:36:46;95511.72;;;4.29;50.78
13581;BME280;6861;46.170;7.222;2024-03-08T05:39:16;95517.44;;;4.31;50.75
13581;BME280;6861;46.170;7.222;2024-03-08T05:41:47;95508.50;;;4.22;50.74
13581;BME280;6861;46.170;7.222;2024-03-08T05:44:15;95511.22;;;4.15;51.19
13581;BME280;6861;46.170;7.222;2024-03-08T05:46:44;95509.81;;;4.08;51.31
13581;BME280;6861;46.170;7.222;2024-03-08T05:49:14;95507.22;;;4.08;51.30
13581;BME280;6861;46.170;7.222;2024-03-08T05:51:42;95507.38;;;4.01;50.88
13581;BME280;6861;46.170;7.222;2024-03-08T05:54:12;95513.34;;;4.02;51.50
13581;BME280;6861;46.170;7.222;2024-03-08T05:56:44;95509.88;;;3.96;51.27
13581;BME280;6861;46.170;7.222;2024-03-08T05:59:16;95512.38;;;3.91;51.33
13581;BME280;6861;46.170;7.222;2024-03-08T06:01:45;95512.06;;;3.87;51.44
13581;BME280;6861;46.170;7.222;2024-03-08T06:04:13;95507.34;;;3.84;51.57
13581;BME280;6861;46.170;7.222;2024-03-08T06:06:42;95510.50;;;3.86;51.53
13581;BME280;6861;46.170;7.222;2024-03-08T06:09:11;95503.53;;;3.87;52.06
13581;BME280;6861;46.170;7.222;2024-03-08T06:11:43;95505.31;;;3.86;51.59
13581;BME280;6861;46.170;7.222;2024-03-08T06:14:12;95510.50;;;3.86;51.99
13581;BME280;6861;46.170;7.222;2024-03-08T06:16:47;95499.69;;;3.89;51.35
13581;BME280;6861;46.170;7.222;2024-03-08T06:19:17;95499.69;;;3.89;51.61
13581;BME280;6861;46.170;7.222;2024-03-08T06:21:45;95502.19;;;3.84;51.95
13581;BME280;6861;46.170;7.222;2024-03-08T06:24:14;95497.38;;;3.76;51.75
13581;BME280;6861;46.170;7.222;2024-03-08T06:26:43;95508.44;;;3.72;52.11
13581;BME280;6861;46.170;7.222;2024-03-08T06:29:11;95495.72;;;3.70;52.71
13581;BME280;6861;46.170;7.222;2024-03-08T06:31:39;95487.41;;;3.68;52.07
13581;BME280;6861;46.170;7.222;2024-03-08T06:34:09;95489.22;;;3.68;52.50
13581;BME280;6861;46.170;7.222;2024-03-08T06:36:38;95497.44;;;3.65;52.72
13581;BME280;6861;46.170;7.222;2024-03-08T06:39:06;95491.47;;;3.64;52.68
13581;BME280;6861;46.170;7.222;2024-03-08T06:41:37;95493.50;;;3.62;52.22
13581;BME280;6861;46.170;7.222;2024-03-08T06:44:05;95497.13;;;3.61;52.74
13581;BME280;6861;46.170;7.222;2024-03-08T06:46:35;95496.09;;;3.62;52.91
13581;BME280;6861;46.170;7.222;2024-03-08T06:49:05;95495.31;;;3.61;52.70
13581;BME280;6861;46.170;7.222;2024-03-08T06:51:36;95496.00;;;3.57;52.81
13581;BME280;6861;46.170;7.222;2024-03-08T06:54:04;95490.28;;;3.55;53.47
13581;BME280;6861;46.170;7.222;2024-03-08T06:56:36;95490.06;;;3.56;53.58
13581;BME280;6861;46.170;7.222;2024-03-08T06:59:04;95494.22;;;3.57;53.26
13581;BME280;6861;46.170;7.222;2024-03-08T07:01:33;95500.84;;;3.53;53.47
13581;BME280;6861;46.170;7.222;2024-03-08T07:04:04;95495.38;;;3.50;52.85
13581;BME280;6861;46.170;7.222;2024-03-08T07:06:33;95488.06;;;3.47;53.39
13581;BME280;6861;46.170;7.222;2024-03-08T07:09:03;95495.38;;;3.50;52.82
13581;BME280;6861;46.170;7.222;2024-03-08T07:11:31;95493.34;;;3.52;52.84
13581;BME280;6861;46.170;7.222;2024-03-08T07:14:01;95505.34;;;3.58;53.03
13581;BME280;6861;46.170;7.222;2024-03-08T07:16:32;95498.69;;;3.62;53.39
13581;BME280;6861;46.170;7.222;2024-03-08T07:19:02;95499.66;;;3.73;53.02
13581;BME280;6861;46.170;7.222;2024-03-08T07:21:32;95498.03;;;3.83;52.25
13581;BME280;6861;46.170;7.222;2024-03-08T07:24:00;95499.69;;;3.89;52.15
13581;BME280;6861;46.170;7.222;2024-03-08T07:26:47;95490.66;;;3.92;52.31
13581;BME280;6861;46.170;7.222;2024-03-08T07:29:16;95492.56;;;3.97;52.69
13581;BME280;6861;46.170;7.222;2024-03-08T07:31:45;95487.00;;;4.05;52.26
13581;BME280;6861;46.170;7.222;2024-03-08T07:34:22;95470.81;;;4.14;52.24
13581;BME280;6861;46.170;7.222;2024-03-08T07:36:50;95475.06;;;4.20;51.91
13581;BME280;6861;46.170;7.222;2024-03-08T07:39:19;95484.31;;;4.33;51.64
13581;BME280;6861;46.170;7.222;2024-03-08T07:41:52;95488.53;;;4.39;51.22
13581;BME280;6861;46.170;7.222;2024-03-08T07:44:20;95493.53;;;4.46;51.17
13581;BME280;6861;46.170;7.222;2024-03-08T07:46:48;95492.28;;;4.48;51.58
13581;BME280;6861;46.170;7.222;2024-03-08T07:49:19;95488.19;;;4.52;51.09
13581;BME280;6861;46.170;7.222;2024-03-08T07:51:48;95483.00;;;4.52;51.38
13581;BME280;6861;46.170;7.222;2024-03-08T07:54:17;95493.94;;;4.54;51.12
13581;BME280;6861;46.170;7.222;2024-03-08T07:56:45;95482.69;;;4.66;51.10
13581;BME280;6861;46.170;7.222;2024-03-08T07:59:15;95482.91;;;6.42;50.07
13581;BME280;6861;46.170;7.222;2024-03-08T08:01:43;95472.56;;;9.28;46.19
13581;BME280;6861;46.170;7.222;2024-03-08T08:04:14;95470.56;;;12.13;41.23
13581;BME280;6861;46.170;7.222;2024-03-08T08:06:44;95468.28;;;14.57;38.37
13581;BME280;6861;46.170;7.222;2024-03-08T08:09:13;95456.72;;;15.97;36.32
13581;BME280;6861;46.170;7.222;2024-03-08T08:11:42;95446.19;;;17.17;34.08
13581;BME280;6861;46.170;7.222;2024-03-08T08:14:11;95444.63;;;18.41;32.48
13581;BME280;6861;46.170;7.222;2024-03-08T08:16:40;95432.41;;;19.54;31.33
13581;BME280;6861;46.170;7.222;2024-03-08T08:19:09;95434.47;;;20.57;30.09
13581;BME280;6861;46.170;7.222;2024-03-08T08:21:41;95426.59;;;21.39;28.67
13581;BME280;6861;46.170;7.222;2024-03-08T08:24:09;95423.66;;;21.44;28.03
13581;BME280;6861;46.170;7.222;2024-03-08T08:26:37;95411.44;;;22.17;27.16
13581;BME280;6861;46.170;7.222;2024-03-08T08:29:06;95413.88;;;22.68;26.60
13581;BME280;6861;46.170;7.222;2024-03-08T08:31:35;95419.34;;;23.50;25.29
13581;BME280;6861;46.170;7.222;2024-03-08T08:34:04;95413.16;;;23.99;24.58
13581;BME280;6861;46.170;7.222;2024-03-08T08:36:33;95409.44;;;24.81;23.30
13581;BME280;6861;46.170;7.222;2024-03-08T08:39:04;95399.97;;;24.91;22.97
13581;BME280;6861;46.170;7.222;2024-03-08T08:41:39;95400.34;;;25.44;22.37
13581;BME280;6861;46.170;7.222;2024-03-08T08:44:08;95396.81;;;26.02;21.01
13581;BME280;6861;46.170;7.222;2024-03-08T08:46:42;95391.25;;;26.86;20.41
13581;BME280;6861;46.170;7.222;2024-03-08T08:49:12;95379.75;;;27.17;20.11
13581;BME280;6861;46.170;7.222;2024-03-08T08:51:48;95380.84;;;27.66;18.66
13581;BME280;6861;46.170;7.222;2024-03-08T08:54:19;95371.50;;;27.92;18.80
13581;BME280;6861;46.170;7.222;2024-03-08T08:56:48;95376.22;;;28.50;17.93
13581;BME280;6861;46.170;7.222;2024-03-08T08:59:17;95363.31;;;28.79;17.98
13581;BME280;6861;46.170;7.222;2024-03-08T09:01:49;95354.09;;;29.62;17.25
13581;BME280;6861;46.170;7.222;2024-03-08T09:04:22;95355.66;;;30.24;16.51
13581;BME280;6861;46.170;7.222;2024-03-08T09:06:51;95354.06;;;30.81;16.41
13581;BME280;6861;46.170;7.222;2024-03-08T09:09:20;95343.53;;;31.53;16.01
13581;BME280;6861;46.170;7.222;2024-03-08T09:11:49;95342.59;;;31.63;15.59
13581;BME280;6861;46.170;7.222;2024-03-08T09:14:17;95340.22;;;31.65;15.17
13581;BME280;6861;46.170;7.222;2024-03-08T09:16:47;95337.25;;;32.35;14.87
13581;BME280;6861;46.170;7.222;2024-03-08T09:19:15;95330.28;;;33.15;13.74
13581;BME280;6861;46.170;7.222;2024-03-08T09:21:45;95328.31;;;34.03;13.36
13581;BME280;6861;46.170;7.222;2024-03-08T09:24:14;95321.41;;;35.12;12.86
13581;BME280;6861;46.170;7.222;2024-03-08T09:26:42;95315.34;;;35.87;12.47
13581;BME280;6861;46.170;7.222;2024-03-08T09:29:11;95320.28;;;36.81;11.70
13581;BME280;6861;46.170;7.222;2024-03-08T09:31:39;95310.75;;;37.77;11.14
13581;BME280;6861;46.170;7.222;2024-03-08T09:34:07;95301.94;;;38.33;10.96
13581;BME280;6861;46.170;7.222;2024-03-08T09:36:44;95304.78;;;38.39;10.24
13581;BME280;6861;46.170;7.222;2024-03-08T09:39:12;95313.06;;;37.24;10.40
13581;BME280;6861;46.170;7.222;2024-03-08T09:41:43;95300.06;;;36.60;10.64
13581;BME280;6861;46.170;7.222;2024-03-08T09:44:15;95294.16;;;36.62;10.26
13581;BME280;6861;46.170;7.222;2024-03-08T09:46:45;95284.44;;;36.61;9.69
13581;BME280;6861;46.170;7.222;2024-03-08T09:49:14;95281.25;;;36.53;10.01
13581;BME280;6861;46.170;7.222;2024-03-08T09:51:45;95277.41;;;37.36;9.77
13581;BME280;6861;46.170;7.222;2024-03-08T09:54:15;95273.25;;;38.29;9.73
13581;BME280;6861;46.170;7.222;2024-03-08T09:56:51;95275.69;;;38.60;9.55
13581;BME280;6861;46.170;7.222;2024-03-08T09:59:20;95266.47;;;37.73;9.59
13581;BME280;6861;46.170;7.222;2024-03-08T10:02:15;95267.72;;;35.69;10.21
13581;BME280;6861;46.170;7.222;2024-03-08T10:04:44;95260.25;;;33.43;11.31
13581;BME280;6861;46.170;7.222;2024-03-08T10:07:17;95246.88;;;31.37;12.17
13581;BME280;6861;46.170;7.222;2024-03-08T10:09:45;95251.97;;;30.22;12.99
13581;BME280;6861;46.170;7.222;2024-03-08T10:12:17;95244.28;;;29.32;13.14
13581;BME280;6861;46.170;7.222;2024-03-08T10:14:46;95255.84;;;27.95;13.72
13581;BME280;6861;46.170;7.222;2024-03-08T10:17:14;95245.13;;;26.08;14.55
13581;BME280;6861;46.170;7.222;2024-03-08T10:19:50;95237.41;;;24.30;16.29
13581;BME280;6861;46.170;7.222;2024-03-08T10:22:21;95229.81;;;22.91;16.51
13581;BME280;6861;46.170;7.222;2024-03-08T10:24:50;95236.22;;;21.68;17.42
13581;BME280;6861;46.170;7.222;2024-03-08T10:27:18;95225.84;;;21.40;18.17
13581;BME280;6861;46.170;7.222;2024-03-08T10:29:47;95226.53;;;21.37;18.25
13581;BME280;6861;46.170;7.222;2024-03-08T10:32:18;95222.28;;;21.33;18.28
13581;BME280;6861;46.170;7.222;2024-03-08T10:34:47;95220.94;;;21.23;18.05
13581;BME280;6861;46.170;7.222;2024-03-08T10:37:22;95222.53;;;20.54;18.84
13581;BME280;6861;46.170;7.222;2024-03-08T10:40:01;95225.28;;;19.79;19.58
13581;BME280;6861;46.170;7.222;2024-03-08T10:42:40;95221.72;;;19.31;19.95
13581;BME280;6861;46.170;7.222;2024-03-08T10:45:19;95215.47;;;18.83;20.41
13581;BME280;6861;46.170;7.222;2024-03-08T10:50:43;95204.72;;;18.15;21.46
13581;BME280;6861;46.170;7.222;2024-03-08T10:53:15;95201.63;;;18.01;21.89
13581;BME280;6861;46.170;7.222;2024-03-08T10:55:49;95203.03;;;17.86;22.02
13581;BME280;6861;46.170;7.222;2024-03-08T10:58:22;95203.69;;;17.83;21.79
13581;BME280;6861;46.170;7.222;2024-03-08T11:00:54;95199.06;;;17.92;21.74
13581;BME280;6861;46.170;7.222;2024-03-08T11:03:45;95194.44;;;18.26;21.01
13581;BME280;6861;46.170;7.222;2024-03-08T11:06:17;95194.00;;;18.24;21.69
13581;BME280;6861;46.170;7.222;2024-03-08T11:08:51;95195.78;;;18.20;21.29
13581;BME280;6861;46.170;7.222;2024-03-08T11:11:28;95192.00;;;18.21;21.60
13581;BME280;6861;46.170;7.222;2024-03-08T11:14:02;95191.69;;;18.10;21.37
13581;BME280;6861;46.170;7.222;2024-03-08T11:16:39;95185.41;;;18.02;21.88
13581;BME280;6861;46.170;7.222;2024-03-08T11:19:29;95180.13;;;18.15;21.03
13581;BME280;6861;46.170;7.222;2024-03-08T11:22:03;95168.53;;;18.19;21.33
13581;BME280;6861;46.170;7.222;2024-03-08T11:24:39;95167.06;;;18.22;21.18
13581;BME280;6861;46.170;7.222;2024-03-08T11:27:09;95165.22;;;18.10;21.29
13581;BME280;6861;46.170;7.222;2024-03-08T11:29:39;95159.59;;;18.12;21.73
13581;BME280;6861;46.170;7.222;2024-03-08T11:32:11;95152.66;;;18.19;22.01
13581;BME280;6861;46.170;7.222;2024-03-08T11:34:41;95142.38;;;18.18;21.02
13581;BME280;6861;46.170;7.222;2024-03-08T11:37:12;95143.78;;;18.27;21.15
13581;BME280;6861;46.170;7.222;2024-03-08T11:39:48;95132.28;;;18.35;21.70
13581;BME280;6861;46.170;7.222;2024-03-08T11:42:18;95131.84;;;18.46;21.47
13581;BME280;6861;46.170;7.222;2024-03-08T11:44:47;95123.44;;;18.44;21.35
13581;BME280;6861;46.170;7.222;2024-03-08T11:47:16;95121.56;;;18.44;20.97
13581;BME280;6861;46.170;7.222;2024-03-08T11:49:44;95114.72;;;18.43;21.59
13581;BME280;6861;46.170;7.222;2024-03-08T11:52:16;95115.03;;;18.54;20.91
13581;BME280;6861;46.170;7.222;2024-03-08T11:54:53;95110.84;;;18.53;20.67
13581;BME280;6861;46.170;7.222;2024-03-08T11:57:25;95101.56;;;18.59;21.00
13581;BME280;6861;46.170;7.222;2024-03-08T11:59:56;95098.03;;;18.67;20.99
13581;BME280;6861;46.170;7.222;2024-03-08T12:02:25;95092.81;;;18.71;20.73
13581;BME280;6861;46.170;7.222;2024-03-08T12:04:58;95092.44;;;18.84;20.12
13581;BME280;6861;46.170;7.222;2024-03-08T12:07:28;95089.72;;;18.96;19.87
13581;BME280;6861;46.170;7.222;2024-03-08T12:10:18;95078.63;;;19.22;20.25
13581;BME280;6861;46.170;7.222;2024-03-08T12:12:49;95067.69;;;19.24;20.27
13581;BME280;6861;46.170;7.222;2024-03-08T12:15:19;95067.19;;;19.34;20.05
13581;BME280;6861;46.170;7.222;2024-03-08T12:17:50;95060.25;;;19.45;19.95
13581;BME280;6861;46.170;7.222;2024-03-08T12:20:20;95065.38;;;19.38;20.18
13581;BME280;6861;46.170;7.222;2024-03-08T12:22:50;95056.41;;;19.43;20.14
13581;BME280;6861;46.170;7.222;2024-03-08T12:25:22;95048.72;;;19.53;20.05
13581;BME280;6861;46.170;7.222;2024-03-08T12:27:50;95044.94;;;19.54;20.20
13581;BME280;6861;46.170;7.222;2024-03-08T12:30:21;95039.09;;;19.49;20.15
13581;BME280;6861;46.170;7.222;2024-03-08T12:32:53;95036.38;;;19.45;20.04
13581;BME280;6861;46.170;7.222;2024-03-08T12:35:24;95020.28;;;19.38;20.19
13581;BME280;6861;46.170;7.222;2024-03-08T12:37:54;95018.13;;;19.12;20.46
13581;BME280;6861;46.170;7.222;2024-03-08T12:40:28;95014.81;;;18.99;20.40
13581;BME280;6861;46.170;7.222;2024-03-08T12:42:59;95010.44;;;18.76;20.84
13581;BME280;6861;46.170;7.222;2024-03-08T12:45:27;95011.63;;;18.50;21.06
13581;BME280;6861;46.170;7.222;2024-03-08T12:47:55;95007.13;;;18.39;21.30
13581;BME280;6861;46.170;7.222;2024-03-08T12:50:24;95007.00;;;18.19;21.40
13581;BME280;6861;46.170;7.222;2024-03-08T12:52:53;95002.53;;;18.08;21.05
13581;BME280;6861;46.170;7.222;2024-03-08T12:55:21;94992.59;;;18.05;21.94
13581;BME280;6861;46.170;7.222;2024-03-08T12:57:51;94987.34;;;17.92;21.90
13581;BME280;6861;46.170;7.222;2024-03-08T13:00:20;94981.41;;;17.83;22.29
13581;BME280;6861;46.170;7.222;2024-03-08T13:02:50;94975.22;;;17.79;22.72
13581;BME280;6861;46.170;7.222;2024-03-08T13:05:19;94972.25;;;17.81;22.34
13581;BME280;6861;46.170;7.222;2024-03-08T13:07:47;94970.63;;;17.76;22.67
13581;BME280;6861;46.170;7.222;2024-03-08T13:10:16;94962.13;;;17.71;23.27
13581;BME280;6861;46.170;7.222;2024-03-08T13:12:47;94951.97;;;17.60;22.76
13581;BME280;6861;46.170;7.222;2024-03-08T13:15:21;94951.78;;;17.53;23.29
13581;BME280;6861;46.170;7.222;2024-03-08T13:17:50;94944.72;;;17.45;23.47
13581;BME280;6861;46.170;7.222;2024-03-08T13:20:18;94948.47;;;17.44;22.93
13581;BME280;6861;46.170;7.222;2024-03-08T13:22:59;94929.22;;;17.31;23.53
13581;BME280;6861;46.170;7.222;2024-03-08T13:25:28;94922.28;;;17.27;23.84
13581;BME280;6861;46.170;7.222;2024-03-08T13:27:57;94926.69;;;17.23;23.27
13581;BME280;6861;46.170;7.222;2024-03-08T13:30:29;94913.72;;;17.18;23.54
13581;BME280;6861;46.170;7.222;2024-03-08T13:32:57;94906.88;;;17.17;23.62
13581;BME280;6861;46.170;7.222;2024-03-08T13:35:26;94910.63;;;17.16;23.87